Elisabeth K — PBEO — position and weather

sailwx.info

Track history (hours):
 
Tides and Currents Weather Stations Pressure Air Temp Water Temp Dewpoint Dewpoint Depression Visibility Wind Speed Wind Dir Waves Ship Positions

Elisabeth K

Last reported at 2017-Aug-17 02:15 UTC. Time now 2017-Aug-17 03:49 UTC.
Position N 52°02' E 002°59'.

Length 87.9 m; beam 12.8 m; draft 5.5 m.

Type: Cargo ship. MMSI: 245712000.

Date/timePositionNaut miles runAvg speedWind from/ knotsBaromVisibWave heightAir tempDewpointWater temp
2017-Aug-17 02:15N 52°02' E 002°59'3 9.0
2017-Aug-17 01:58N 51°60' E 002°57'5 9.3
2017-Aug-17 01:26N 51°56' E 002°52'4 9.5
2017-Aug-17 01:00N 51°53' E 002°47'5 9.7
2017-Aug-17 00:30N 51°49' E 002°42'5 9.9
2017-Aug-17 00:01N 51°45' E 002°37'510.0
2017-Aug-16 23:30N 51°41' E 002°32'610.3
2017-Aug-16 22:56N 51°37' E 002°27'510.5
2017-Aug-16 22:30N 51°33' E 002°22'510.5
2017-Aug-16 22:01N 51°29' E 002°17'510.7
2017-Aug-16 21:30N 51°25' E 002°12'611.2
2017-Aug-16 21:00N 51°20' E 002°08'511.0
2017-Aug-16 20:31N 51°14' E 002°05'611.6
2017-Aug-16 20:00N 51°11' E 001°57'611.9
2017-Aug-16 19:31N 51°07' E 001°50'612.1
2017-Aug-16 19:01N 51°03' E 001°43'612.6
2017-Aug-16 18:30N 50°58' E 001°37'612.8
2017-Aug-16 18:01N 50°54' E 001°30'612.1
2017-Aug-16 17:31N 50°48' E 001°26'611.5
2017-Aug-16 17:01N 50°43' E 001°23'510.9
2017-Aug-16 16:30N 50°38' E 001°18'611.0
2017-Aug-16 15:58N 50°34' E 001°11'87 9.6
2017-Aug-16 06:54N 50°07' W 000°59'4 8.5
2017-Aug-16 06:24N 50°06' W 001°06'4 8.8
2017-Aug-16 05:59N 50°05' W 001°11'4 9.3
2017-Aug-16 05:31N 50°04' W 001°18'5 9.8
2017-Aug-16 05:01N 50°02' W 001°25'510.4
2017-Aug-16 04:31N 50°00' W 001°32'611.0
2017-Aug-16 04:00N 49°59' W 001°41'611.5
2017-Aug-16 03:31N 49°57' W 001°49'712.1
2017-Aug-16 02:56N 49°55' W 001°60'612.2
2017-Aug-16 02:29N 49°55' W 002°08'1211.9
2017-Aug-16 01:29N 49°52' W 002°26'1111.7
2017-Aug-16 00:31N 49°49' W 002°43'011.4
2017-Aug-16 00:30N 49°49' W 002°43'611.5
2017-Aug-16 00:00N 49°47' W 002°52'911.1
2017-Aug-15 23:14N 49°43' W 003°04'910.9
2017-Aug-15 22:24N 49°39' W 003°16'410.5
2017-Aug-15 22:00N 49°36' W 003°21'610.5
2017-Aug-15 21:26N 49°34' W 003°29'72 9.6
2017-Aug-15 13:58N 48°57' W 005°04'5 9.2
2017-Aug-15 13:27N 48°55' W 005°10'  
2017-Aug-13 06:32N 41°10' W 009°49'1 9.0
2017-Aug-13 06:25N 41°09' W 009°49'4 8.8
2017-Aug-13 06:00N 41°05' W 009°49'43 8.2
2017-Aug-13 00:41N 40°22' W 009°49'1 8.1
2017-Aug-13 00:30N 40°20' W 009°49'4 7.9
2017-Aug-13 00:00N 40°17' W 009°49'4 8.5
2017-Aug-12 23:29N 40°12' W 009°49'4 8.5
2017-Aug-12 23:00N 40°08' W 009°49'5 9.0
2017-Aug-12 22:30N 40°04' W 009°49'4 7.7
2017-Aug-12 22:00N 39°60' W 009°49'4 8.2
2017-Aug-12 21:30N 39°56' W 009°49'4 8.1
2017-Aug-12 21:00N 39°52' W 009°50'4 8.2
2017-Aug-12 20:30N 39°47' W 009°50'4 8.2
2017-Aug-12 20:00N 39°43' W 009°50'4 8.7
2017-Aug-12 19:30N 39°39' W 009°50'4 8.5
2017-Aug-12 19:00N 39°35' W 009°50'4 8.6
2017-Aug-12 18:31N 39°30' W 009°51'4 8.9
2017-Aug-12 18:01N 39°26' W 009°51'4 8.5
2017-Aug-12 17:30N 39°22' W 009°51'4 8.6
2017-Aug-12 17:00N 39°17' W 009°51'4 8.7
2017-Aug-12 16:30N 39°13' W 009°50'4 8.8
2017-Aug-12 16:01N 39°09' W 009°50'4 8.7
2017-Aug-12 15:30N 39°04' W 009°51'4 8.6
2017-Aug-12 15:01N 39°00' W 009°50'4 8.6
2017-Aug-12 14:31N 38°56' W 009°50'4 8.2
2017-Aug-12 14:01N 38°52' W 009°50'4 8.3
2017-Aug-12 13:30N 38°48' W 009°50'4 8.6
2017-Aug-12 13:01N 38°43' W 009°50'4 8.4
2017-Aug-12 12:31N 38°39' W 009°49'4 8.4
2017-Aug-12 12:00N 38°35' W 009°48'4 8.5
2017-Aug-12 11:31N 38°31' W 009°47'4 8.6
2017-Aug-12 11:01N 38°27' W 009°45'4 8.2
2017-Aug-12 10:31N 38°23' W 009°44'4 8.5
2017-Aug-12 10:01N 38°19' W 009°42'4 8.6
2017-Aug-12 09:31N 38°15' W 009°41'4 8.5
2017-Aug-12 09:00N 38°10' W 009°40'4 8.3
2017-Aug-12 08:31N 38°06' W 009°39'4 8.3
2017-Aug-12 08:00N 38°02' W 009°38'4 8.1
2017-Aug-12 07:30N 37°58' W 009°37'4 8.3
2017-Aug-12 07:00N 37°54' W 009°36'4 8.1
2017-Aug-12 06:31N 37°50' W 009°35'4 8.0
2017-Aug-12 06:00N 37°46' W 009°33'4 7.9
2017-Aug-12 05:31N 37°43' W 009°32'4 8.4
2017-Aug-12 05:00N 37°39' W 009°31'4 8.1
2017-Aug-12 04:31N 37°34' W 009°30'4 8.7
2017-Aug-12 04:00N 37°30' W 009°29'4 8.6
2017-Aug-12 03:31N 37°26' W 009°28'4 8.5
2017-Aug-12 03:00N 37°22' W 009°26'4 8.5
2017-Aug-12 02:30N 37°18' W 009°25'4 8.2
2017-Aug-12 02:01N 37°14' W 009°24'6 8.3
2017-Aug-12 01:20N 37°08' W 009°22'3 8.3
2017-Aug-12 00:57N 37°05' W 009°21'4 8.3
2017-Aug-12 00:28N 37°01' W 009°20'4 8.6
2017-Aug-12 00:00N 36°58' W 009°19'4 8.5
2017-Aug-11 23:29N 36°53' W 009°17'4 8.8
2017-Aug-11 22:59N 36°50' W 009°14'4 8.5
2017-Aug-11 22:30N 36°47' W 009°10'4 8.5
2017-Aug-11 22:00N 36°45' W 009°06'4 8.9
2017-Aug-11 21:30N 36°44' W 009°00'5 9.1
2017-Aug-11 21:00N 36°42' W 008°55'5 9.2
2017-Aug-11 20:30N 36°41' W 008°50'5 9.2
2017-Aug-11 20:00N 36°39' W 008°44'17 8.9
2017-Aug-11 18:08N 36°35' W 008°24'3 8.9
2017-Aug-11 17:45N 36°34' W 008°20'135 9.3
2017-Aug-11 03:17N 35°58' W 005°38'3 9.9
2017-Aug-11 03:00N 35°58' W 005°35'5 9.3
2017-Aug-11 02:31N 35°60' W 005°30'4 8.5
2017-Aug-11 02:00N 36°02' W 005°25'5 8.8
2017-Aug-11 01:29N 36°06' W 005°23'3 0.9
2017-Aug-10 22:06N 36°09' W 005°22'0 0.7
2017-Aug-10 21:57N 36°09' W 005°22'2 4.4
2017-Aug-10 21:30N 36°07' W 005°22'7 8.0
2017-Aug-10 20:38N 36°09' W 005°14'220 9.0
2017-Aug-09 20:15N 37°20' W 000°54'3 9.9
2017-Aug-09 20:00N 37°22' W 000°52'510.0
2017-Aug-09 19:30N 37°25' W 000°47'510.0
2017-Aug-09 19:00N 37°28' W 000°43'510.1
2017-Aug-09 18:30N 37°32' W 000°38'5 9.9
2017-Aug-09 18:00N 37°34' W 000°33'5 9.8
2017-Aug-09 17:30N 37°37' W 000°27'5 9.8
2017-Aug-09 17:00N 37°39' W 000°22'5 9.5
2017-Aug-09 16:30N 37°41' W 000°17'133 9.2
2017-Aug-09 01:58N 38°46' E 002°11'5 9.8
2017-Aug-09 01:28N 38°49' E 002°17'5 9.8
2017-Aug-09 01:00N 38°51' E 002°22'5 9.9
2017-Aug-09 00:30N 38°53' E 002°28'510.2
2017-Aug-09 00:00N 38°55' E 002°33'510.3
2017-Aug-08 23:30N 38°57' E 002°39'510.3
2017-Aug-08 23:00N 38°60' E 002°45'510.3
2017-Aug-08 22:30N 39°02' E 002°51'510.1
2017-Aug-08 21:59N 39°05' E 002°57'510.1
2017-Aug-08 21:30N 39°07' E 003°02'510.2
2017-Aug-08 21:00N 39°10' E 003°08'510.2
2017-Aug-08 20:30N 39°12' E 003°14'510.2
2017-Aug-08 20:00N 39°15' E 003°20'5 9.9
2017-Aug-08 19:30N 39°16' E 003°26'510.0
2017-Aug-08 19:00N 39°17' E 003°32'5 9.9
2017-Aug-08 18:29N 39°18' E 003°39'126 9.5
2017-Aug-08 05:19N 39°37' E 006°19'104 4.2
2017-Aug-07 04:34N 39°52' E 008°33'2 9.4
2017-Aug-07 04:23N 39°53' E 008°31'  
Track history (hours):
 
Tides and Currents Weather Stations Pressure Air Temp Water Temp Dewpoint Dewpoint Depression Visibility Wind Speed Wind Dir Waves Ship Positions

Elisabeth K

Last reported at 2017-Aug-17 02:15 UTC. Time now 2017-Aug-17 03:49 UTC.
Position N 52°02' E 002°59'.

Length 87.9 m; beam 12.8 m; draft 5.5 m.

Type: Cargo ship. MMSI: 245712000.

Date/timePositionNaut miles runAvg speedWind from/ knotsBaromVisibWave heightAir tempDewpointWater temp
2017-Aug-17 02:15N 52°02' E 002°59'3 9.0
2017-Aug-17 01:58N 51°60' E 002°57'5 9.3
2017-Aug-17 01:26N 51°56' E 002°52'4 9.5
2017-Aug-17 01:00N 51°53' E 002°47'5 9.7
2017-Aug-17 00:30N 51°49' E 002°42'5 9.9
2017-Aug-17 00:01N 51°45' E 002°37'510.0
2017-Aug-16 23:30N 51°41' E 002°32'610.3
2017-Aug-16 22:56N 51°37' E 002°27'510.5
2017-Aug-16 22:30N 51°33' E 002°22'510.5
2017-Aug-16 22:01N 51°29' E 002°17'510.7
2017-Aug-16 21:30N 51°25' E 002°12'611.2
2017-Aug-16 21:00N 51°20' E 002°08'511.0
2017-Aug-16 20:31N 51°14' E 002°05'611.6
2017-Aug-16 20:00N 51°11' E 001°57'611.9
2017-Aug-16 19:31N 51°07' E 001°50'612.1
2017-Aug-16 19:01N 51°03' E 001°43'612.6
2017-Aug-16 18:30N 50°58' E 001°37'612.8
2017-Aug-16 18:01N 50°54' E 001°30'612.1
2017-Aug-16 17:31N 50°48' E 001°26'611.5
2017-Aug-16 17:01N 50°43' E 001°23'510.9
2017-Aug-16 16:30N 50°38' E 001°18'611.0
2017-Aug-16 15:58N 50°34' E 001°11'87 9.6
2017-Aug-16 06:54N 50°07' W 000°59'4 8.5
2017-Aug-16 06:24N 50°06' W 001°06'4 8.8
2017-Aug-16 05:59N 50°05' W 001°11'4 9.3
2017-Aug-16 05:31N 50°04' W 001°18'5 9.8
2017-Aug-16 05:01N 50°02' W 001°25'510.4
2017-Aug-16 04:31N 50°00' W 001°32'611.0
2017-Aug-16 04:00N 49°59' W 001°41'611.5
2017-Aug-16 03:31N 49°57' W 001°49'712.1
2017-Aug-16 02:56N 49°55' W 001°60'612.2
2017-Aug-16 02:29N 49°55' W 002°08'1211.9
2017-Aug-16 01:29N 49°52' W 002°26'1111.7
2017-Aug-16 00:31N 49°49' W 002°43'011.4
2017-Aug-16 00:30N 49°49' W 002°43'611.5
2017-Aug-16 00:00N 49°47' W 002°52'911.1
2017-Aug-15 23:14N 49°43' W 003°04'910.9
2017-Aug-15 22:24N 49°39' W 003°16'410.5
2017-Aug-15 22:00N 49°36' W 003°21'610.5
2017-Aug-15 21:26N 49°34' W 003°29'72 9.6
2017-Aug-15 13:58N 48°57' W 005°04'5 9.2
2017-Aug-15 13:27N 48°55' W 005°10'  
2017-Aug-13 06:32N 41°10' W 009°49'1 9.0
2017-Aug-13 06:25N 41°09' W 009°49'4 8.8
2017-Aug-13 06:00N 41°05' W 009°49'43 8.2
2017-Aug-13 00:41N 40°22' W 009°49'1 8.1
2017-Aug-13 00:30N 40°20' W 009°49'4 7.9
2017-Aug-13 00:00N 40°17' W 009°49'4 8.5
2017-Aug-12 23:29N 40°12' W 009°49'4 8.5
2017-Aug-12 23:00N 40°08' W 009°49'5 9.0
2017-Aug-12 22:30N 40°04' W 009°49'4 7.7
2017-Aug-12 22:00N 39°60' W 009°49'4 8.2
2017-Aug-12 21:30N 39°56' W 009°49'4 8.1
2017-Aug-12 21:00N 39°52' W 009°50'4 8.2
2017-Aug-12 20:30N 39°47' W 009°50'4 8.2
2017-Aug-12 20:00N 39°43' W 009°50'4 8.7
2017-Aug-12 19:30N 39°39' W 009°50'4 8.5
2017-Aug-12 19:00N 39°35' W 009°50'4 8.6
2017-Aug-12 18:31N 39°30' W 009°51'4 8.9
2017-Aug-12 18:01N 39°26' W 009°51'4 8.5
2017-Aug-12 17:30N 39°22' W 009°51'4 8.6
2017-Aug-12 17:00N 39°17' W 009°51'4 8.7
2017-Aug-12 16:30N 39°13' W 009°50'4 8.8
2017-Aug-12 16:01N 39°09' W 009°50'4 8.7
2017-Aug-12 15:30N 39°04' W 009°51'4 8.6
2017-Aug-12 15:01N 39°00' W 009°50'4 8.6
2017-Aug-12 14:31N 38°56' W 009°50'4 8.2
2017-Aug-12 14:01N 38°52' W 009°50'4 8.3
2017-Aug-12 13:30N 38°48' W 009°50'4 8.6
2017-Aug-12 13:01N 38°43' W 009°50'4 8.4
2017-Aug-12 12:31N 38°39' W 009°49'4 8.4
2017-Aug-12 12:00N 38°35' W 009°48'4 8.5
2017-Aug-12 11:31N 38°31' W 009°47'4 8.6
2017-Aug-12 11:01N 38°27' W 009°45'4 8.2
2017-Aug-12 10:31N 38°23' W 009°44'4 8.5
2017-Aug-12 10:01N 38°19' W 009°42'4 8.6
2017-Aug-12 09:31N 38°15' W 009°41'4 8.5
2017-Aug-12 09:00N 38°10' W 009°40'4 8.3
2017-Aug-12 08:31N 38°06' W 009°39'4 8.3
2017-Aug-12 08:00N 38°02' W 009°38'4 8.1
2017-Aug-12 07:30N 37°58' W 009°37'4 8.3
2017-Aug-12 07:00N 37°54' W 009°36'4 8.1
2017-Aug-12 06:31N 37°50' W 009°35'4 8.0
2017-Aug-12 06:00N 37°46' W 009°33'4 7.9
2017-Aug-12 05:31N 37°43' W 009°32'4 8.4
2017-Aug-12 05:00N 37°39' W 009°31'4 8.1
2017-Aug-12 04:31N 37°34' W 009°30'4 8.7
2017-Aug-12 04:00N 37°30' W 009°29'4 8.6
2017-Aug-12 03:31N 37°26' W 009°28'4 8.5
2017-Aug-12 03:00N 37°22' W 009°26'4 8.5
2017-Aug-12 02:30N 37°18' W 009°25'4 8.2
2017-Aug-12 02:01N 37°14' W 009°24'6 8.3
2017-Aug-12 01:20N 37°08' W 009°22'3 8.3
2017-Aug-12 00:57N 37°05' W 009°21'4 8.3
2017-Aug-12 00:28N 37°01' W 009°20'4 8.6
2017-Aug-12 00:00N 36°58' W 009°19'4 8.5
2017-Aug-11 23:29N 36°53' W 009°17'4 8.8
2017-Aug-11 22:59N 36°50' W 009°14'4 8.5
2017-Aug-11 22:30N 36°47' W 009°10'4 8.5
2017-Aug-11 22:00N 36°45' W 009°06'4 8.9
2017-Aug-11 21:30N 36°44' W 009°00'5 9.1
2017-Aug-11 21:00N 36°42' W 008°55'5 9.2
2017-Aug-11 20:30N 36°41' W 008°50'5 9.2
2017-Aug-11 20:00N 36°39' W 008°44'17 8.9
2017-Aug-11 18:08N 36°35' W 008°24'3 8.9
2017-Aug-11 17:45N 36°34' W 008°20'135 9.3
2017-Aug-11 03:17N 35°58' W 005°38'3 9.9
2017-Aug-11 03:00N 35°58' W 005°35'5 9.3
2017-Aug-11 02:31N 35°60' W 005°30'4 8.5
2017-Aug-11 02:00N 36°02' W 005°25'5 8.8
2017-Aug-11 01:29N 36°06' W 005°23'3 0.9
2017-Aug-10 22:06N 36°09' W 005°22'0 0.7
2017-Aug-10 21:57N 36°09' W 005°22'2 4.4
2017-Aug-10 21:30N 36°07' W 005°22'7 8.0
2017-Aug-10 20:38N 36°09' W 005°14'220 9.0
2017-Aug-09 20:15N 37°20' W 000°54'3 9.9
2017-Aug-09 20:00N 37°22' W 000°52'510.0
2017-Aug-09 19:30N 37°25' W 000°47'510.0
2017-Aug-09 19:00N 37°28' W 000°43'510.1
2017-Aug-09 18:30N 37°32' W 000°38'5 9.9
2017-Aug-09 18:00N 37°34' W 000°33'5 9.8
2017-Aug-09 17:30N 37°37' W 000°27'5 9.8
2017-Aug-09 17:00N 37°39' W 000°22'5 9.5
2017-Aug-09 16:30N 37°41' W 000°17'133 9.2
2017-Aug-09 01:58N 38°46' E 002°11'5 9.8
2017-Aug-09 01:28N 38°49' E 002°17'5 9.8
2017-Aug-09 01:00N 38°51' E 002°22'5 9.9
2017-Aug-09 00:30N 38°53' E 002°28'510.2
2017-Aug-09 00:00N 38°55' E 002°33'510.3
2017-Aug-08 23:30N 38°57' E 002°39'510.3
2017-Aug-08 23:00N 38°60' E 002°45'510.3
2017-Aug-08 22:30N 39°02' E 002°51'510.1
2017-Aug-08 21:59N 39°05' E 002°57'510.1
2017-Aug-08 21:30N 39°07' E 003°02'510.2
2017-Aug-08 21:00N 39°10' E 003°08'510.2
2017-Aug-08 20:30N 39°12' E 003°14'510.2
2017-Aug-08 20:00N 39°15' E 003°20'5 9.9
2017-Aug-08 19:30N 39°16' E 003°26'510.0
2017-Aug-08 19:00N 39°17' E 003°32'5 9.9
2017-Aug-08 18:29N 39°18' E 003°39'126 9.5
2017-Aug-08 05:19N 39°37' E 006°19'104 4.2
2017-Aug-07 04:34N 39°52' E 008°33'2 9.4
2017-Aug-07 04:23N 39°53' E 008°31'  

Dump ship's entire track history